createdAt,value
2023-01-20T00:01:26.725Z,41.90
2023-01-20T00:03:55.015Z,45.58
2023-01-20T00:06:22.697Z,43.33
2023-01-20T00:08:53.844Z,45.72
2023-01-20T00:11:21.091Z,47.20
2023-01-20T00:13:47.947Z,44.53
2023-01-20T00:16:14.723Z,42.05
2023-01-20T00:18:41.646Z,42.60
2023-01-20T00:21:11.567Z,36.03
2023-01-20T00:23:39.048Z,43.25
2023-01-20T00:26:07.532Z,36.05
2023-01-20T00:28:35.074Z,44.63
2023-01-20T00:31:16.815Z,49.45
2023-01-20T00:33:44.114Z,46.70
2023-01-20T00:36:12.115Z,42.40
2023-01-20T00:38:39.453Z,42.47
2023-01-20T00:41:07.048Z,44.15
2023-01-20T00:43:33.843Z,47.83
2023-01-20T00:46:00.883Z,43.00
2023-01-20T00:48:27.609Z,41.53
2023-01-20T00:50:54.298Z,43.63
2023-01-20T00:53:21.273Z,46.58
2023-01-20T00:55:48.061Z,40.20
2023-01-20T00:58:14.751Z,37.67
2023-01-20T01:00:41.506Z,40.67
2023-01-20T01:03:10.167Z,46.55
2023-01-20T01:05:37.657Z,41.92
2023-01-20T01:08:04.817Z,36.65
2023-01-20T01:10:32.154Z,46.78
2023-01-20T01:13:00.392Z,43.30
2023-01-20T01:15:27.858Z,39.13
2023-01-20T01:17:55.475Z,44.45
2023-01-20T01:20:22.163Z,37.22
2023-01-20T01:22:48.987Z,40.58
2023-01-20T01:25:15.848Z,40.40
2023-01-20T01:27:43.216Z,33.53
2023-01-20T01:30:10.658Z,37.42
2023-01-20T01:32:37.416Z,34.85
2023-01-20T01:35:04.392Z,41.97
2023-01-20T01:37:31.133Z,34.00
2023-01-20T01:39:57.753Z,36.08
2023-01-20T01:42:26.316Z,37.92
2023-01-20T01:45:11.406Z,38.00
2023-01-20T01:47:40.004Z,38.70
2023-01-20T01:50:10.166Z,40.25
2023-01-20T01:52:38.012Z,40.22
2023-01-20T01:55:05.200Z,46.65
2023-01-20T01:57:32.380Z,41.45
2023-01-20T01:59:59.082Z,45.35
2023-01-20T02:02:26.015Z,33.10
2023-01-20T02:04:52.753Z,40.90
2023-01-20T02:07:21.482Z,41.42
2023-01-20T02:09:48.161Z,38.00
2023-01-20T02:12:19.763Z,40.45
2023-01-20T02:14:50.589Z,33.00
2023-01-20T02:17:31.932Z,42.80
2023-01-20T02:20:35.799Z,40.30
2023-01-20T02:23:14.544Z,43.72
2023-01-20T02:26:06.159Z,37.97
2023-01-20T02:28:35.968Z,50.22
2023-01-20T02:31:34.767Z,42.50
2023-01-20T02:34:10.776Z,37.60
2023-01-20T02:36:48.078Z,37.30
2023-01-20T02:39:34.724Z,37.00
2023-01-20T02:42:18.987Z,37.40
2023-01-20T02:44:55.563Z,38.13
2023-01-20T02:47:53.591Z,40.28
2023-01-20T02:50:25.759Z,35.15
2023-01-20T02:52:56.600Z,37.17
2023-01-20T02:55:46.116Z,32.97
2023-01-20T02:58:23.392Z,37.60
2023-01-20T03:01:00.972Z,37.03
2023-01-20T03:03:33.844Z,35.42
2023-01-20T03:06:03.884Z,34.38
2023-01-20T03:08:33.004Z,30.85
2023-01-20T03:11:04.963Z,39.38
2023-01-20T03:13:46.214Z,29.10
2023-01-20T03:16:18.116Z,34.35
2023-01-20T03:18:45.063Z,38.75
2023-01-20T03:21:13.279Z,40.72
2023-01-20T03:23:46.680Z,27.35
2023-01-20T03:26:16.382Z,39.50
2023-01-20T03:28:45.197Z,30.30
2023-01-20T03:31:19.906Z,38.20
2023-01-20T03:33:49.022Z,33.65
2023-01-20T03:36:18.275Z,38.03
2023-01-20T03:38:46.017Z,38.45
2023-01-20T03:41:34.748Z,41.00
2023-01-20T03:44:16.738Z,38.58
2023-01-20T03:46:52.789Z,49.55
2023-01-20T03:49:37.150Z,49.85
2023-01-20T03:52:16.365Z,39.30
2023-01-20T03:54:50.685Z,42.33
2023-01-20T03:57:22.830Z,45.08
2023-01-20T04:02:18.149Z,48.03
2023-01-20T04:04:47.519Z,45.30
2023-01-20T04:07:20.470Z,44.85
2023-01-20T04:09:54.833Z,44.03
2023-01-20T04:12:21.724Z,54.53
2023-01-20T04:14:48.376Z,49.85
2023-01-20T04:17:15.563Z,45.35
2023-01-20T04:19:42.232Z,46.72
2023-01-20T04:22:27.830Z,52.70
2023-01-20T04:24:59.813Z,52.92
2023-01-20T04:27:26.436Z,49.47
2023-01-20T04:29:53.109Z,57.17
2023-01-20T04:32:19.826Z,55.20
2023-01-20T04:34:46.496Z,57.45
2023-01-20T04:37:13.191Z,53.08
2023-01-20T04:39:39.905Z,50.25
2023-01-20T04:42:06.564Z,54.00
2023-01-20T04:44:33.381Z,53.03
2023-01-20T04:47:00.105Z,47.90
2023-01-20T04:49:26.860Z,55.53
2023-01-20T04:51:53.503Z,53.20
2023-01-20T04:54:20.460Z,51.08
2023-01-20T04:56:50.164Z,55.78
2023-01-20T04:59:16.875Z,47.97
2023-01-20T05:01:43.628Z,64.28
2023-01-20T05:04:10.756Z,58.65
2023-01-20T05:06:37.529Z,54.38
2023-01-20T05:09:04.390Z,48.42
2023-01-20T05:11:31.051Z,50.70
2023-01-20T05:13:57.907Z,61.20
2023-01-20T05:16:25.961Z,48.85
2023-01-20T05:18:53.941Z,53.42
2023-01-20T05:21:20.588Z,58.38
2023-01-20T05:23:47.233Z,59.38
2023-01-20T05:26:13.968Z,61.53
2023-01-20T05:28:42.077Z,52.88
2023-01-20T05:31:09.147Z,63.22
2023-01-20T05:33:36.571Z,60.15
2023-01-20T05:36:07.771Z,60.40
2023-01-20T05:38:34.550Z,62.10
2023-01-20T05:41:01.967Z,50.85
2023-01-20T05:43:28.699Z,52.63
2023-01-20T05:45:55.628Z,57.33
2023-01-20T05:48:22.395Z,65.78
2023-01-20T05:50:49.038Z,51.88
2023-01-20T05:53:16.361Z,62.42
2023-01-20T05:55:43.248Z,48.15
2023-01-20T05:58:10.360Z,51.58
2023-01-20T06:00:37.304Z,52.65
2023-01-20T06:03:04.458Z,50.50
2023-01-20T06:05:34.603Z,53.85
2023-01-20T06:08:04.863Z,54.83
2023-01-20T06:10:31.790Z,52.63
2023-01-20T06:12:58.616Z,53.80
2023-01-20T06:15:39.588Z,51.65
2023-01-20T06:18:06.479Z,52.40
2023-01-20T06:20:33.378Z,58.33
2023-01-20T06:23:00.041Z,53.13
2023-01-20T06:25:26.743Z,58.42
2023-01-20T06:27:53.441Z,66.93
2023-01-20T06:30:20.172Z,55.67
2023-01-20T06:32:50.742Z,59.45
2023-01-20T06:35:17.543Z,54.88
2023-01-20T06:37:44.257Z,47.35
2023-01-20T06:40:11.850Z,62.15
2023-01-20T06:42:38.626Z,52.08
2023-01-20T06:45:05.734Z,47.25
2023-01-20T06:47:32.557Z,56.33
2023-01-20T06:49:59.231Z,56.60
2023-01-20T06:52:26.452Z,53.92
2023-01-20T06:54:53.156Z,49.25
2023-01-20T06:57:19.825Z,55.40
2023-01-20T06:59:46.460Z,54.85
2023-01-20T07:02:13.238Z,46.72
2023-01-20T07:04:40.220Z,59.75
2023-01-20T07:07:06.907Z,59.85
2023-01-20T07:09:33.573Z,62.60
2023-01-20T07:12:00.211Z,55.53
2023-01-20T07:14:26.920Z,58.80
2023-01-20T07:16:53.764Z,54.33
2023-01-20T07:19:20.486Z,45.92
2023-01-20T07:21:47.172Z,53.25
2023-01-20T07:24:13.828Z,50.47
2023-01-20T07:26:40.545Z,59.03
2023-01-20T07:29:07.204Z,48.40
2023-01-20T07:31:34.345Z,58.40
2023-01-20T07:34:01.139Z,50.13
2023-01-20T07:36:28.042Z,56.63
2023-01-20T07:38:54.986Z,51.38
2023-01-20T07:41:22.411Z,55.90
2023-01-20T07:43:51.035Z,59.90
2023-01-20T07:46:19.001Z,54.03
2023-01-20T07:48:46.261Z,59.03
2023-01-20T07:51:14.867Z,45.97
2023-01-20T07:53:47.092Z,47.42
2023-01-20T07:56:33.007Z,51.60
2023-01-20T07:58:59.784Z,53.10
2023-01-20T08:01:29.058Z,55.17
2023-01-20T08:03:56.301Z,54.65
2023-01-20T08:06:25.452Z,53.30
2023-01-20T08:08:52.606Z,53.17
2023-01-20T08:11:21.317Z,55.47
2023-01-20T08:13:48.206Z,44.72
2023-01-20T08:16:16.874Z,47.25
2023-01-20T08:18:44.357Z,59.58
2023-01-20T08:21:37.514Z,51.90
2023-01-20T08:24:06.466Z,52.10
2023-01-20T08:26:34.118Z,48.50
2023-01-20T08:29:09.964Z,51.70
2023-01-20T08:31:37.428Z,50.90
2023-01-20T08:34:04.780Z,54.33
2023-01-20T08:36:34.652Z,46.67
2023-01-20T08:39:03.667Z,53.25
2023-01-20T08:41:33.814Z,50.17
2023-01-20T08:44:02.244Z,47.00
2023-01-20T08:46:29.017Z,47.67
2023-01-20T08:48:56.184Z,49.40
2023-01-20T08:51:31.451Z,54.80
2023-01-20T08:53:59.380Z,52.22
2023-01-20T08:56:26.679Z,55.88
2023-01-20T08:58:54.010Z,54.70
2023-01-20T09:01:27.550Z,56.90
2023-01-20T09:04:05.522Z,52.22
2023-01-20T09:06:42.527Z,54.92
2023-01-20T09:09:10.131Z,42.25
2023-01-20T09:11:36.986Z,51.45
2023-01-20T09:14:03.784Z,54.85
2023-01-20T09:16:30.527Z,53.58
2023-01-20T09:18:57.238Z,49.30
2023-01-20T09:21:24.019Z,47.08
2023-01-20T09:23:51.159Z,55.05
2023-01-20T09:26:34.185Z,45.83
2023-01-20T09:29:09.240Z,50.85
2023-01-20T09:31:38.414Z,56.50
2023-01-20T09:34:05.389Z,50.42
2023-01-20T09:36:32.063Z,50.80
2023-01-20T09:39:17.352Z,58.25
2023-01-20T09:42:06.720Z,55.83
2023-01-20T09:44:50.297Z,50.45
2023-01-20T09:47:30.967Z,55.25
2023-01-20T09:50:41.942Z,46.17
2023-01-20T09:53:34.420Z,50.75
2023-01-20T09:58:40.334Z,47.38
2023-01-20T10:01:19.291Z,49.20
2023-01-20T10:03:53.568Z,46.72
2023-01-20T10:06:31.725Z,45.97
2023-01-20T10:09:06.667Z,46.40
2023-01-20T10:11:46.322Z,46.20
2023-01-20T10:14:29.594Z,49.22
2023-01-20T10:17:04.645Z,45.30
2023-01-20T10:19:49.895Z,37.10
2023-01-20T10:22:25.946Z,40.03
2023-01-20T10:25:06.367Z,39.20
2023-01-20T10:27:36.027Z,44.53
2023-01-20T10:30:11.564Z,38.97
2023-01-20T10:32:47.353Z,37.70
2023-01-20T10:35:19.695Z,40.05
2023-01-20T10:37:46.442Z,38.17
2023-01-20T10:40:16.724Z,39.53
2023-01-20T10:42:49.698Z,41.53
2023-01-20T10:45:27.113Z,33.00
2023-01-20T10:48:32.191Z,34.88
2023-01-20T10:51:19.011Z,40.05
2023-01-20T10:53:58.425Z,41.28
2023-01-20T10:56:36.341Z,45.80
2023-01-20T10:59:17.940Z,40.63
2023-01-20T11:01:56.279Z,36.08
2023-01-20T11:04:26.493Z,35.37
2023-01-20T11:06:57.316Z,33.17
2023-01-20T11:09:34.351Z,38.63
2023-01-20T11:12:04.809Z,38.47
2023-01-20T11:14:31.918Z,45.65
2023-01-20T11:17:12.935Z,38.80
2023-01-20T11:19:54.799Z,31.85
2023-01-20T11:22:33.275Z,37.83
2023-01-20T11:25:01.704Z,27.65
2023-01-20T11:27:43.877Z,30.15
2023-01-20T11:30:27.923Z,34.03
2023-01-20T11:33:09.205Z,31.77
2023-01-20T11:35:36.075Z,26.70
2023-01-20T11:38:30.996Z,28.88
2023-01-20T11:40:57.946Z,28.98
2023-01-20T11:43:29.171Z,27.27
2023-01-20T11:46:23.586Z,30.75
2023-01-20T11:48:50.609Z,26.52
2023-01-20T11:51:25.578Z,30.25
2023-01-20T11:54:13.643Z,25.00
2023-01-20T11:56:43.804Z,22.10
2023-01-20T11:59:27.849Z,21.52
2023-01-20T12:02:19.347Z,17.92
2023-01-20T12:05:04.784Z,18.47
2023-01-20T12:07:47.212Z,17.50
2023-01-20T12:10:18.933Z,15.50
2023-01-20T12:12:51.459Z,17.20
2023-01-20T12:15:33.410Z,23.13
2023-01-20T12:18:09.683Z,20.38
2023-01-20T12:20:53.580Z,20.38
2023-01-20T12:23:45.742Z,18.75
2023-01-20T12:26:21.119Z,26.48
2023-01-20T12:29:06.696Z,17.05
2023-01-20T12:31:33.883Z,21.70
2023-01-20T12:34:27.849Z,21.17
2023-01-20T12:37:17.983Z,15.63
2023-01-20T12:40:21.987Z,14.60
2023-01-20T12:43:17.116Z,18.15
2023-01-20T12:45:59.583Z,24.55
2023-01-20T12:48:46.075Z,21.63
2023-01-20T12:51:18.763Z,17.65
2023-01-20T12:54:06.700Z,16.02
2023-01-20T12:57:00.442Z,18.33
2023-01-20T12:59:47.126Z,17.77
2023-01-20T13:02:18.465Z,16.25
2023-01-20T13:05:22.143Z,19.92
2023-01-20T13:08:02.159Z,16.15
2023-01-20T13:10:35.048Z,14.48
2023-01-20T13:13:32.650Z,18.15
2023-01-20T13:16:34.409Z,14.90
2023-01-20T13:19:06.710Z,16.25
2023-01-20T13:21:34.687Z,18.35
2023-01-20T13:24:04.347Z,18.88
2023-01-20T13:26:32.508Z,17.52
2023-01-20T13:29:00.506Z,15.98
2023-01-20T13:31:51.009Z,13.25
2023-01-20T13:34:24.223Z,15.63
2023-01-20T13:37:25.322Z,16.85
2023-01-20T13:39:54.236Z,14.57
2023-01-20T13:42:29.417Z,13.15
2023-01-20T13:45:11.496Z,14.82
2023-01-20T13:48:08.281Z,11.70
2023-01-20T13:50:37.406Z,13.25
2023-01-20T13:53:15.009Z,12.02
2023-01-20T13:55:41.810Z,14.73
2023-01-20T13:58:20.783Z,11.43
2023-01-20T14:01:02.604Z,14.50
2023-01-20T14:03:35.061Z,11.73
2023-01-20T14:06:07.139Z,15.45
2023-01-20T14:11:24.340Z,18.85
2023-01-20T14:13:54.120Z,13.52
2023-01-20T14:16:26.742Z,11.68
2023-01-20T14:19:13.633Z,14.23
2023-01-20T14:21:41.763Z,11.43
2023-01-20T14:24:26.756Z,14.80
2023-01-20T14:27:11.207Z,12.63
2023-01-20T14:29:39.569Z,13.27
2023-01-20T14:32:38.784Z,13.07
2023-01-20T14:35:17.931Z,12.88
2023-01-20T14:37:50.279Z,10.27
2023-01-20T14:43:01.667Z,8.75
2023-01-20T14:45:31.857Z,12.15
2023-01-20T14:48:01.801Z,10.65
2023-01-20T14:50:29.088Z,12.20
2023-01-20T14:52:56.203Z,13.77
2023-01-20T14:55:44.310Z,12.55
2023-01-20T14:58:18.739Z,14.20
2023-01-20T15:00:54.516Z,15.75
2023-01-20T15:03:28.613Z,19.50
2023-01-20T15:05:59.608Z,15.82
2023-01-20T15:08:32.474Z,16.13
2023-01-20T15:11:24.137Z,16.73
2023-01-20T15:14:05.778Z,13.15
2023-01-20T15:16:59.416Z,15.65
2023-01-20T15:19:33.621Z,18.25
2023-01-20T15:22:23.130Z,16.48
2023-01-20T15:24:50.797Z,21.10
2023-01-20T15:27:27.014Z,17.98
2023-01-20T15:30:21.640Z,16.25
2023-01-20T15:32:49.034Z,18.23
2023-01-20T15:35:19.714Z,17.05
2023-01-20T15:37:46.777Z,19.35
2023-01-20T15:40:24.706Z,18.35
2023-01-20T15:42:51.760Z,18.45
2023-01-20T15:45:18.734Z,26.30
2023-01-20T15:47:46.736Z,17.38
2023-01-20T15:50:22.583Z,17.25
2023-01-20T15:52:49.448Z,23.88
2023-01-20T15:55:18.101Z,24.70
2023-01-20T15:57:46.995Z,28.20
2023-01-20T16:00:19.394Z,47.88
2023-01-20T16:02:46.263Z,42.60
2023-01-20T16:05:15.769Z,145.63
2023-01-20T16:07:44.252Z,72.07
2023-01-20T16:10:16.865Z,38.53
2023-01-20T16:12:44.791Z,23.98
2023-01-20T16:15:16.987Z,23.55
2023-01-20T16:17:43.992Z,22.58
2023-01-20T16:20:18.344Z,24.67
2023-01-20T16:22:45.154Z,23.90
2023-01-20T16:25:11.938Z,24.67
2023-01-20T16:27:38.668Z,19.05
2023-01-20T16:30:12.919Z,25.08
2023-01-20T16:32:39.945Z,21.27
2023-01-20T16:35:06.973Z,20.02
2023-01-20T16:37:33.649Z,21.00
2023-01-20T16:40:00.466Z,23.88
2023-01-20T16:42:27.178Z,26.50
2023-01-20T16:44:54.003Z,26.83
2023-01-20T16:47:20.684Z,21.70
2023-01-20T16:49:47.358Z,24.08
2023-01-20T16:52:14.017Z,20.30
2023-01-20T16:54:40.659Z,19.85
2023-01-20T16:57:08.353Z,28.50
2023-01-20T16:59:35.332Z,22.20
2023-01-20T17:02:02.064Z,22.83
2023-01-20T17:04:29.525Z,24.40
2023-01-20T17:06:56.354Z,20.10
2023-01-20T17:09:23.009Z,22.95
2023-01-20T17:11:49.672Z,22.33
2023-01-20T17:14:16.354Z,20.85
2023-01-20T17:16:43.094Z,22.70
2023-01-20T17:19:10.265Z,26.48
2023-01-20T17:21:39.125Z,21.83
2023-01-20T17:24:06.444Z,28.33
2023-01-20T17:26:33.138Z,20.65
2023-01-20T17:29:03.391Z,19.00
2023-01-20T17:31:33.064Z,23.25
2023-01-20T17:34:00.015Z,22.63
2023-01-20T17:36:26.812Z,23.27
2023-01-20T17:38:53.699Z,23.95
2023-01-20T17:41:20.559Z,22.40
2023-01-20T17:43:47.256Z,28.88
2023-01-20T17:46:20.257Z,30.27
2023-01-20T17:48:47.436Z,32.15
2023-01-20T17:51:25.073Z,31.17
2023-01-20T17:53:52.229Z,32.75
2023-01-20T17:56:21.135Z,33.40
2023-01-20T17:58:49.017Z,30.20
2023-01-20T18:01:18.270Z,26.15
2023-01-20T18:03:46.318Z,22.60
2023-01-20T18:06:15.068Z,29.83
2023-01-20T18:08:42.870Z,27.38
2023-01-20T18:11:21.682Z,24.73
2023-01-20T18:13:49.955Z,28.63
2023-01-20T18:16:18.737Z,26.63
2023-01-20T18:18:46.808Z,28.20
2023-01-20T18:21:16.711Z,23.10
2023-01-20T18:23:44.349Z,31.25
2023-01-20T18:26:13.733Z,27.58
2023-01-20T18:28:41.478Z,30.83
2023-01-20T18:31:11.491Z,33.65
2023-01-20T18:33:44.101Z,31.65
2023-01-20T18:36:14.894Z,26.60
2023-01-20T18:38:44.566Z,23.70
2023-01-20T18:41:13.256Z,23.48
2023-01-20T18:43:40.971Z,26.10
2023-01-20T18:46:08.926Z,26.60
2023-01-20T18:48:39.995Z,25.42
2023-01-20T18:51:10.129Z,27.00
2023-01-20T18:53:37.253Z,25.42
2023-01-20T18:56:07.009Z,23.25
2023-01-20T18:58:35.225Z,30.50
2023-01-20T19:01:13.115Z,28.88
2023-01-20T19:03:40.442Z,26.40
2023-01-20T19:06:12.487Z,25.65
2023-01-20T19:08:41.432Z,28.80
2023-01-20T19:11:15.557Z,28.02
2023-01-20T19:13:43.537Z,34.25
2023-01-20T19:16:12.741Z,34.90
2023-01-20T19:18:44.580Z,26.88
2023-01-20T19:21:14.803Z,29.05
2023-01-20T19:23:42.720Z,31.60
2023-01-20T19:26:12.325Z,29.05
2023-01-20T19:28:40.190Z,32.83
2023-01-20T19:31:12.930Z,33.05
2023-01-20T19:33:40.065Z,29.92
2023-01-20T19:36:10.744Z,29.88
2023-01-20T19:38:38.131Z,29.95
2023-01-20T19:41:10.810Z,29.15
2023-01-20T19:43:37.585Z,28.15
2023-01-20T19:46:07.169Z,25.30
2023-01-20T19:48:34.085Z,34.83
2023-01-20T19:51:12.945Z,30.40
2023-01-20T19:53:40.082Z,32.97
2023-01-20T19:56:12.272Z,42.05
2023-01-20T20:01:10.466Z,30.98
2023-01-20T20:03:37.690Z,30.63
2023-01-20T20:06:06.063Z,29.30
2023-01-20T20:08:33.680Z,29.15
2023-01-20T20:11:00.386Z,34.55
2023-01-20T20:13:27.028Z,39.53
2023-01-20T20:16:02.268Z,40.67
2023-01-20T20:18:28.984Z,43.63
2023-01-20T20:20:56.131Z,36.42
2023-01-20T20:23:23.392Z,35.75
2023-01-20T20:25:57.717Z,34.00
2023-01-20T20:28:25.675Z,33.90
2023-01-20T20:30:55.603Z,37.40
2023-01-20T20:33:26.623Z,36.40
2023-01-20T20:35:53.777Z,36.15
2023-01-20T20:38:20.838Z,39.13
2023-01-20T20:40:47.871Z,38.28
2023-01-20T20:43:14.921Z,40.50
2023-01-20T20:45:42.069Z,38.63
2023-01-20T20:48:10.346Z,37.35
2023-01-20T20:50:38.208Z,33.22
2023-01-20T20:53:05.262Z,38.05
2023-01-20T20:55:32.317Z,41.72
2023-01-20T20:57:59.465Z,35.88
2023-01-20T21:00:28.351Z,34.72
2023-01-20T21:02:56.144Z,34.75
2023-01-20T21:05:23.570Z,41.88
2023-01-20T21:07:53.095Z,38.47
2023-01-20T21:10:28.826Z,36.80
2023-01-20T21:13:13.121Z,38.28
2023-01-20T21:15:43.815Z,40.88
2023-01-20T21:18:11.091Z,36.60
2023-01-20T21:20:39.572Z,42.97
2023-01-20T21:23:08.949Z,33.72
2023-01-20T21:25:36.012Z,40.15
2023-01-20T21:28:03.139Z,43.65
2023-01-20T21:30:30.220Z,41.63
2023-01-20T21:32:57.134Z,35.70
2023-01-20T21:35:24.387Z,35.28
2023-01-20T21:37:55.231Z,29.73
2023-01-20T21:40:22.677Z,31.70
2023-01-20T21:42:53.718Z,30.55
2023-01-20T21:45:20.887Z,33.08
2023-01-20T21:47:50.075Z,30.38
2023-01-20T21:50:35.957Z,31.65
2023-01-20T21:53:03.023Z,35.35
2023-01-20T21:55:30.254Z,35.08
2023-01-20T21:57:57.619Z,36.60
2023-01-20T22:00:24.872Z,38.33
2023-01-20T22:02:52.221Z,35.60
2023-01-20T22:05:19.469Z,47.47
2023-01-20T22:07:48.000Z,39.42
2023-01-20T22:10:15.491Z,42.78
2023-01-20T22:16:26.988Z,39.45
2023-01-20T22:19:10.861Z,38.97
2023-01-20T22:21:39.168Z,41.40
2023-01-20T22:24:08.796Z,35.50
2023-01-20T22:26:35.519Z,35.17
2023-01-20T22:29:02.301Z,36.85
2023-01-20T22:31:30.148Z,31.33
2023-01-20T22:33:58.426Z,37.90
2023-01-20T22:36:25.254Z,37.58
2023-01-20T22:38:54.356Z,40.58
2023-01-20T22:41:21.713Z,36.38
2023-01-20T22:43:50.515Z,39.80
2023-01-20T22:46:19.544Z,37.53
2023-01-20T22:48:46.856Z,44.33
2023-01-20T22:51:18.380Z,43.85
2023-01-20T22:53:45.479Z,44.75
2023-01-20T22:56:14.816Z,38.50
2023-01-20T22:58:42.481Z,42.20
2023-01-20T23:01:13.720Z,44.30
2023-01-20T23:03:42.214Z,37.45
2023-01-20T23:06:09.857Z,50.67
2023-01-20T23:08:36.663Z,45.25
2023-01-20T23:11:09.518Z,32.78
2023-01-20T23:13:36.584Z,32.42
2023-01-20T23:16:04.763Z,33.83
2023-01-20T23:18:32.396Z,36.20
2023-01-20T23:20:59.893Z,28.92
2023-01-20T23:23:27.299Z,32.90
2023-01-20T23:26:06.117Z,31.55
2023-01-20T23:28:33.615Z,31.05
2023-01-20T23:31:05.154Z,30.73
2023-01-20T23:33:32.521Z,35.35
2023-01-20T23:36:06.686Z,39.17
2023-01-20T23:38:33.594Z,38.92
2023-01-20T23:41:00.640Z,37.67
2023-01-20T23:43:27.400Z,38.22
2023-01-20T23:45:57.584Z,36.17
2023-01-20T23:48:24.411Z,35.92
2023-01-20T23:50:51.723Z,35.38
2023-01-20T23:53:18.619Z,38.90
2023-01-20T23:55:45.588Z,35.90
2023-01-20T23:58:12.346Z,38.88
